createdAt,value
2018-11-05T00:02:19.533Z,35.52
2018-11-05T00:04:48.308Z,36.33
2018-11-05T00:07:15.968Z,39.13
2018-11-05T00:09:43.336Z,38.38
2018-11-05T00:12:10.800Z,32.67
2018-11-05T00:14:38.169Z,34.98
2018-11-05T00:17:07.908Z,33.20
2018-11-05T00:19:36.038Z,39.10
2018-11-05T00:22:05.446Z,34.67
2018-11-05T00:24:32.867Z,33.78
2018-11-05T00:27:00.233Z,34.53
2018-11-05T00:29:27.592Z,30.75
2018-11-05T00:31:54.975Z,30.77
2018-11-05T00:34:24.674Z,31.57
2018-11-05T00:36:52.120Z,39.23
2018-11-05T00:39:19.539Z,37.53
2018-11-05T00:41:48.817Z,31.90
2018-11-05T00:44:17.761Z,33.55
2018-11-05T00:46:48.905Z,35.15
2018-11-05T00:49:17.958Z,38.13
2018-11-05T00:51:45.907Z,36.05
2018-11-05T00:54:13.730Z,36.28
2018-11-05T00:56:41.120Z,35.08
2018-11-05T00:59:11.500Z,26.97
2018-11-05T01:01:38.999Z,30.20
2018-11-05T01:04:06.832Z,28.20
2018-11-05T01:06:34.367Z,26.57
2018-11-05T01:09:01.971Z,31.27
2018-11-05T01:11:30.051Z,30.00
2018-11-05T01:13:57.582Z,30.52
2018-11-05T01:16:25.109Z,29.63
2018-11-05T01:18:55.577Z,37.88
2018-11-05T01:21:24.174Z,29.20
2018-11-05T01:23:51.733Z,30.95
2018-11-05T01:26:21.432Z,32.60
2018-11-05T01:28:51.059Z,31.90
2018-11-05T01:31:18.406Z,24.15
2018-11-05T01:33:45.945Z,27.70
2018-11-05T01:36:13.319Z,31.25
2018-11-05T01:38:41.698Z,27.17
2018-11-05T01:41:09.167Z,30.23
2018-11-05T01:43:36.690Z,30.25
2018-11-05T01:46:04.071Z,26.35
2018-11-05T01:48:31.613Z,26.37
2018-11-05T01:51:00.504Z,27.30
2018-11-05T01:53:29.938Z,30.60
2018-11-05T01:55:57.470Z,29.50
2018-11-05T01:58:24.924Z,33.30
2018-11-05T02:00:53.389Z,37.83
2018-11-05T02:03:21.965Z,32.17
2018-11-05T02:05:49.315Z,29.60
2018-11-05T02:08:16.701Z,28.30
2018-11-05T02:10:44.103Z,28.85
2018-11-05T02:13:12.258Z,30.68
2018-11-05T02:15:40.226Z,30.57
2018-11-05T02:18:07.512Z,29.23
2018-11-05T02:20:34.923Z,25.02
2018-11-05T02:23:03.543Z,28.50
2018-11-05T02:25:33.180Z,29.82
2018-11-05T02:28:00.832Z,28.50
2018-11-05T02:30:28.500Z,32.25
2018-11-05T02:32:55.888Z,28.40
2018-11-05T02:35:23.089Z,34.05
2018-11-05T02:39:20.977Z,27.82
2018-11-05T02:41:48.360Z,30.88
2018-11-05T02:44:17.103Z,32.03
2018-11-05T02:46:46.271Z,26.30
2018-11-05T02:49:19.507Z,25.82
2018-11-05T02:51:46.896Z,23.22
2018-11-05T02:54:14.214Z,22.87
2018-11-05T02:56:41.632Z,23.85
2018-11-05T02:59:08.930Z,25.27
2018-11-05T03:01:43.386Z,23.10
2018-11-05T03:04:10.873Z,21.40
2018-11-05T03:06:39.737Z,27.32
2018-11-05T03:09:11.854Z,23.05
2018-11-05T03:11:41.650Z,21.23
2018-11-05T03:14:09.379Z,22.73
2018-11-05T03:16:37.218Z,18.20
2018-11-05T03:19:04.987Z,19.65
2018-11-05T03:21:32.882Z,18.35
2018-11-05T03:24:03.084Z,18.77
2018-11-05T03:26:31.515Z,13.95
2018-11-05T03:29:00.080Z,17.20
2018-11-05T03:31:27.675Z,30.92
2018-11-05T03:33:56.460Z,16.93
2018-11-05T03:36:25.126Z,15.50
2018-11-05T03:38:52.522Z,18.32
2018-11-05T03:41:20.135Z,12.88
2018-11-05T03:43:47.515Z,17.02
2018-11-05T03:46:14.931Z,18.42
2018-11-05T03:48:44.488Z,18.20
2018-11-05T03:51:13.651Z,18.65
2018-11-05T03:53:41.108Z,16.23
2018-11-05T03:56:08.661Z,17.60
2018-11-05T03:58:36.530Z,17.23
2018-11-05T04:01:04.082Z,18.77
2018-11-05T04:03:33.824Z,18.67
2018-11-05T04:06:01.010Z,13.60
2018-11-05T04:08:28.335Z,14.60
2018-11-05T04:10:55.782Z,16.30
2018-11-05T04:13:23.181Z,13.98
2018-11-05T04:15:51.821Z,14.33
2018-11-05T04:18:19.050Z,13.60
2018-11-05T04:20:46.511Z,13.68
2018-11-05T04:23:13.844Z,14.07
2018-11-05T04:25:41.419Z,12.78
2018-11-05T04:28:11.128Z,24.72
2018-11-05T04:30:38.430Z,16.00
2018-11-05T04:33:06.422Z,16.90
2018-11-05T04:35:34.059Z,13.22
2018-11-05T04:38:01.770Z,13.10
2018-11-05T04:40:29.942Z,12.03
2018-11-05T04:42:57.258Z,13.58
2018-11-05T04:45:24.690Z,14.68
2018-11-05T04:47:52.983Z,16.50
2018-11-05T04:50:21.365Z,13.80
2018-11-05T04:52:48.971Z,19.65
2018-11-05T04:55:17.048Z,13.95
2018-11-05T04:57:45.385Z,12.95
2018-11-05T05:00:17.879Z,20.12
2018-11-05T05:02:45.304Z,23.98
2018-11-05T05:05:14.003Z,61.35
2018-11-05T05:07:41.507Z,28.65
2018-11-05T05:10:09.353Z,18.85
2018-11-05T05:12:38.365Z,25.00
2018-11-05T05:15:10.674Z,73.30
2018-11-05T05:17:39.449Z,61.75
2018-11-05T05:20:11.832Z,16.50
2018-11-05T05:22:39.330Z,18.45
2018-11-05T05:25:06.841Z,16.42
2018-11-05T05:27:34.268Z,16.32
2018-11-05T05:30:01.555Z,14.73
2018-11-05T05:32:28.939Z,15.83
2018-11-05T05:36:28.767Z,12.35
2018-11-05T05:42:29.283Z,13.28
2018-11-05T05:44:56.866Z,9.20
2018-11-05T05:47:25.671Z,13.38
2018-11-05T05:49:54.866Z,12.10
2018-11-05T05:52:24.539Z,11.35
2018-11-05T05:54:54.823Z,11.15
2018-11-05T05:57:23.987Z,18.27
2018-11-05T05:59:51.375Z,18.45
2018-11-05T06:02:20.811Z,160.20
2018-11-05T06:04:48.436Z,108.95
2018-11-05T06:07:15.839Z,19.92
2018-11-05T06:09:43.411Z,50.60
2018-11-05T06:12:11.099Z,15.63
2018-11-05T06:14:40.195Z,17.40
2018-11-05T06:17:07.553Z,14.20
2018-11-05T06:19:34.854Z,15.40
2018-11-05T06:22:06.061Z,54.65
2018-11-05T06:24:33.828Z,16.00
2018-11-05T06:27:02.124Z,20.77
2018-11-05T06:29:29.586Z,13.93
2018-11-05T06:31:57.109Z,14.75
2018-11-05T06:34:24.866Z,22.98
2018-11-05T06:36:52.419Z,21.10
2018-11-05T06:39:21.757Z,36.83
2018-11-05T06:41:49.741Z,12.82
2018-11-05T06:44:17.130Z,44.03
2018-11-05T06:46:44.363Z,27.05
2018-11-05T06:49:14.028Z,23.52
2018-11-05T06:51:42.704Z,16.45
2018-11-05T06:54:11.953Z,119.17
2018-11-05T06:56:40.747Z,49.93
2018-11-05T06:59:08.069Z,19.82
2018-11-05T07:01:35.803Z,178.20
2018-11-05T07:04:03.184Z,162.37
2018-11-05T07:06:30.708Z,129.80
2018-11-05T07:08:59.699Z,102.80
2018-11-05T07:11:27.183Z,21.75
2018-11-05T07:13:54.535Z,44.45
2018-11-05T07:16:24.728Z,26.27
2018-11-05T07:18:53.657Z,41.13
2018-11-05T07:21:21.572Z,18.27
2018-11-05T07:23:48.860Z,43.98
2018-11-05T07:26:16.245Z,60.08
2018-11-05T07:28:45.701Z,89.52
2018-11-05T07:31:16.024Z,20.90
2018-11-05T07:33:43.429Z,19.48
2018-11-05T07:36:11.736Z,10.45
2018-11-05T07:38:39.113Z,10.43
2018-11-05T07:41:06.454Z,9.13
2018-11-05T07:43:36.628Z,10.55
2018-11-05T07:46:05.060Z,18.75
2018-11-05T07:48:32.770Z,6.60
2018-11-05T07:51:00.454Z,15.60
2018-11-05T07:53:29.331Z,40.33
2018-11-05T07:55:58.202Z,82.53
2018-11-05T07:58:25.594Z,14.58
2018-11-05T08:00:55.012Z,27.90
2018-11-05T08:03:22.497Z,27.58
2018-11-05T08:05:49.886Z,66.70
2018-11-05T08:08:18.358Z,42.55
2018-11-05T08:10:47.607Z,118.22
2018-11-05T08:13:15.120Z,110.75
2018-11-05T08:15:44.676Z,27.80
2018-11-05T08:18:14.192Z,81.78
2018-11-05T08:20:41.799Z,106.00
2018-11-05T08:23:10.354Z,108.92
2018-11-05T08:25:39.092Z,169.20
2018-11-05T08:28:07.229Z,235.70
2018-11-05T08:30:35.580Z,160.55
2018-11-05T08:33:04.180Z,131.47
2018-11-05T08:35:33.276Z,69.50
2018-11-05T08:38:00.770Z,92.65
2018-11-05T08:40:28.820Z,47.43
2018-11-05T08:42:58.638Z,23.92
2018-11-05T08:45:28.065Z,25.30
2018-11-05T08:47:57.600Z,16.07
2018-11-05T08:50:27.503Z,151.85
2018-11-05T08:52:54.803Z,33.10
2018-11-05T08:55:24.871Z,35.78
2018-11-05T08:57:52.256Z,16.12
2018-11-05T09:00:25.345Z,11.97
2018-11-05T09:02:55.141Z,12.88
2018-11-05T09:05:24.165Z,12.37
2018-11-05T09:07:53.061Z,11.60
2018-11-05T09:10:20.818Z,10.35
2018-11-05T09:12:50.210Z,11.03
2018-11-05T09:15:18.904Z,11.93
2018-11-05T09:17:46.666Z,12.63
2018-11-05T09:20:15.215Z,10.93
2018-11-05T09:22:44.380Z,14.03
2018-11-05T09:25:12.667Z,14.53
2018-11-05T09:27:40.078Z,18.80
2018-11-05T09:30:11.459Z,17.05
2018-11-05T09:32:39.845Z,14.83
2018-11-05T09:35:07.874Z,16.95
2018-11-05T09:37:35.303Z,14.13
2018-11-05T09:40:04.710Z,17.15
2018-11-05T09:42:32.203Z,17.17
2018-11-05T09:44:59.637Z,12.00
2018-11-05T09:47:27.005Z,15.75
2018-11-05T09:49:56.480Z,15.20
2018-11-05T09:52:25.488Z,12.20
2018-11-05T09:54:52.961Z,12.95
2018-11-05T09:57:20.359Z,13.60
2018-11-05T09:59:48.620Z,13.00
2018-11-05T10:02:17.315Z,12.68
2018-11-05T10:04:45.100Z,16.42
2018-11-05T10:07:13.715Z,13.08
2018-11-05T10:09:42.116Z,13.25
2018-11-05T10:12:11.630Z,13.03
2018-11-05T10:14:41.954Z,14.10
2018-11-05T10:17:12.591Z,16.32
2018-11-05T10:19:41.522Z,16.55
2018-11-05T10:22:11.072Z,13.22
2018-11-05T10:24:41.099Z,17.92
2018-11-05T10:27:08.411Z,15.30
2018-11-05T10:29:36.591Z,13.65
2018-11-05T10:32:05.561Z,15.20
2018-11-05T10:34:38.986Z,14.90
2018-11-05T10:37:08.267Z,25.50
2018-11-05T10:39:38.066Z,44.20
2018-11-05T10:42:05.605Z,32.53
2018-11-05T10:44:36.044Z,17.40
2018-11-05T10:47:03.939Z,14.13
2018-11-05T10:49:32.101Z,18.23
2018-11-05T10:52:04.396Z,16.95
2018-11-05T10:54:32.016Z,16.52
2018-11-05T10:56:59.959Z,15.70
2018-11-05T10:59:27.306Z,14.05
2018-11-05T11:02:03.155Z,14.28
2018-11-05T11:04:31.939Z,13.10
2018-11-05T11:06:59.638Z,11.10
2018-11-05T11:09:28.711Z,15.87
2018-11-05T11:11:58.723Z,11.70
2018-11-05T11:14:26.116Z,16.40
2018-11-05T11:16:55.198Z,12.87
2018-11-05T11:19:22.738Z,11.87
2018-11-05T11:21:50.826Z,14.60
2018-11-05T11:24:19.234Z,21.80
2018-11-05T11:26:49.759Z,16.07
2018-11-05T11:29:18.165Z,13.00
2018-11-05T11:31:45.408Z,18.00
2018-11-05T11:34:12.938Z,14.73
2018-11-05T11:36:40.594Z,23.70
2018-11-05T11:39:10.678Z,9.87
2018-11-05T11:41:40.831Z,12.73
2018-11-05T11:44:09.283Z,12.80
2018-11-05T11:46:37.154Z,12.23
2018-11-05T11:49:05.051Z,13.80
2018-11-05T11:51:33.963Z,13.53
2018-11-05T11:54:02.214Z,14.30
2018-11-05T11:56:29.669Z,9.90
2018-11-05T11:58:57.846Z,14.90
2018-11-05T12:01:27.254Z,12.10
2018-11-05T12:03:56.422Z,13.60
2018-11-05T12:06:23.829Z,9.57
2018-11-05T12:08:51.530Z,15.80
2018-11-05T12:11:18.987Z,9.13
2018-11-05T12:13:46.987Z,7.70
2018-11-05T12:16:14.517Z,13.70
2018-11-05T12:18:44.226Z,15.97
2018-11-05T12:21:11.619Z,20.60
2018-11-05T12:23:40.693Z,9.90
2018-11-05T12:26:08.068Z,9.70
2018-11-05T12:28:36.708Z,12.90
2018-11-05T12:31:06.770Z,13.90
2018-11-05T12:33:36.484Z,18.90
2018-11-05T12:36:04.638Z,11.83
2018-11-05T12:38:32.305Z,9.87
2018-11-05T12:41:02.067Z,11.20
2018-11-05T12:43:29.433Z,19.30
2018-11-05T12:45:56.817Z,18.47
2018-11-05T12:48:25.954Z,12.50
2018-11-05T12:50:54.663Z,11.07
2018-11-05T12:53:22.281Z,24.17
2018-11-05T12:55:50.364Z,21.37
2018-11-05T12:58:17.877Z,9.53
2018-11-05T13:00:45.257Z,12.07
2018-11-05T13:03:12.593Z,12.23
2018-11-05T13:05:39.994Z,12.73
2018-11-05T13:08:12.985Z,14.37
2018-11-05T13:10:40.660Z,11.70
2018-11-05T13:13:08.445Z,13.17
2018-11-05T13:15:36.030Z,9.10
2018-11-05T13:18:04.549Z,34.30
2018-11-05T13:20:32.406Z,11.20
2018-11-05T13:23:01.794Z,16.90
2018-11-05T13:25:31.264Z,9.73
2018-11-05T13:28:00.191Z,7.63
2018-11-05T13:30:28.758Z,12.90
2018-11-05T13:32:56.208Z,7.43
2018-11-05T13:35:24.095Z,15.03
2018-11-05T13:37:53.040Z,22.53
2018-11-05T13:40:22.922Z,21.33
2018-11-05T13:42:52.621Z,15.17
2018-11-05T13:45:21.229Z,17.30
2018-11-05T13:47:49.932Z,11.53
2018-11-05T13:50:18.204Z,17.80
2018-11-05T13:52:45.304Z,13.03
2018-11-05T13:55:15.219Z,14.80
2018-11-05T13:57:45.033Z,15.77
2018-11-05T14:00:15.576Z,18.80
2018-11-05T14:02:44.874Z,9.70
2018-11-05T14:05:12.964Z,22.43
2018-11-05T14:07:40.455Z,14.17
2018-11-05T14:10:11.503Z,11.10
2018-11-05T14:12:40.295Z,21.77
2018-11-05T14:15:08.591Z,7.73
2018-11-05T14:17:36.654Z,17.27
2018-11-05T14:20:04.729Z,8.53
2018-11-05T14:22:32.149Z,39.07
2018-11-05T14:24:59.871Z,13.63
2018-11-05T14:27:30.617Z,13.90
2018-11-05T14:30:00.503Z,20.90
2018-11-05T14:32:27.534Z,5.97
2018-11-05T14:37:16.784Z,12.00
2018-11-05T14:39:44.132Z,13.00
2018-11-05T14:42:12.072Z,6.40
2018-11-05T14:44:39.474Z,8.00
2018-11-05T14:47:08.477Z,12.73
2018-11-05T14:49:37.928Z,20.73
2018-11-05T14:52:05.949Z,14.63
2018-11-05T14:54:35.095Z,10.97
2018-11-05T14:57:05.744Z,16.00
2018-11-05T14:59:33.371Z,16.20
2018-11-05T15:02:07.193Z,13.80
2018-11-05T15:04:35.926Z,13.00
2018-11-05T15:07:03.616Z,9.07
2018-11-05T15:09:31.009Z,16.37
2018-11-05T15:12:00.256Z,7.07
2018-11-05T15:14:28.151Z,18.97
2018-11-05T15:16:58.616Z,19.13
2018-11-05T15:19:28.133Z,16.73
2018-11-05T15:21:55.253Z,11.20
2018-11-05T15:24:24.715Z,17.30
2018-11-05T15:26:53.373Z,9.53
2018-11-05T15:29:21.017Z,9.90
2018-11-05T15:31:48.696Z,13.63
2018-11-05T15:34:17.250Z,35.77
2018-11-05T15:36:46.908Z,25.83
2018-11-05T15:39:14.953Z,16.40
2018-11-05T15:41:42.840Z,15.83
2018-11-05T15:44:10.164Z,13.77
2018-11-05T15:46:38.222Z,14.43
2018-11-05T15:49:08.886Z,12.17
2018-11-05T15:51:37.682Z,12.73
2018-11-05T15:54:05.592Z,15.43
2018-11-05T15:56:33.693Z,14.80
2018-11-05T15:59:01.597Z,14.03
2018-11-05T16:01:31.044Z,15.53
2018-11-05T16:03:58.538Z,12.67
2018-11-05T16:06:25.876Z,13.93
2018-11-05T16:08:55.464Z,14.43
2018-11-05T16:11:23.067Z,9.47
2018-11-05T16:13:52.492Z,18.30
2018-11-05T16:16:20.825Z,16.03
2018-11-05T16:18:48.653Z,13.63
2018-11-05T16:21:16.977Z,15.93
2018-11-05T16:23:44.607Z,21.87
2018-11-05T16:26:14.310Z,21.10
2018-11-05T16:28:44.040Z,15.17
2018-11-05T16:31:13.492Z,18.77
2018-11-05T16:33:44.049Z,19.00
2018-11-05T16:36:11.911Z,19.07
2018-11-05T16:38:39.468Z,22.30
2018-11-05T16:41:09.897Z,17.60
2018-11-05T16:43:37.284Z,21.50
2018-11-05T16:46:05.914Z,14.03
2018-11-05T16:48:33.167Z,20.23
2018-11-05T16:51:00.744Z,16.50
2018-11-05T16:53:28.039Z,22.70
2018-11-05T16:55:58.538Z,17.53
2018-11-05T16:58:26.035Z,20.37
2018-11-05T17:00:53.485Z,17.70
2018-11-05T17:03:21.380Z,23.03
2018-11-05T17:05:49.767Z,14.70
2018-11-05T17:08:17.443Z,17.83
2018-11-05T17:10:44.921Z,17.63
2018-11-05T17:13:12.491Z,18.03
2018-11-05T17:15:39.827Z,15.60
2018-11-05T17:18:07.234Z,16.10
2018-11-05T17:20:34.886Z,20.77
2018-11-05T17:23:02.414Z,18.20
2018-11-05T17:25:30.523Z,18.80
2018-11-05T17:28:00.217Z,17.30
2018-11-05T17:30:31.084Z,25.43
2018-11-05T17:32:58.497Z,22.53
2018-11-05T17:35:27.573Z,17.43
2018-11-05T17:37:54.941Z,20.13
2018-11-05T17:40:23.185Z,22.93
2018-11-05T17:42:51.324Z,25.67
2018-11-05T17:45:19.884Z,31.77
2018-11-05T17:47:49.720Z,21.82
2018-11-05T17:50:19.482Z,25.60
2018-11-05T17:52:48.121Z,22.98
2018-11-05T17:55:17.642Z,23.80
2018-11-05T17:57:48.555Z,23.83
2018-11-05T18:00:19.198Z,29.12
2018-11-05T18:02:46.587Z,22.15
2018-11-05T18:05:14.324Z,27.95
2018-11-05T18:07:43.374Z,22.50
2018-11-05T18:10:10.865Z,22.90
2018-11-05T18:12:38.356Z,23.30
2018-11-05T18:15:09.198Z,29.35
2018-11-05T18:17:39.937Z,42.03
2018-11-05T18:20:08.496Z,28.57
2018-11-05T18:22:37.589Z,31.75
2018-11-05T18:25:06.471Z,26.97
2018-11-05T18:27:36.282Z,21.25
2018-11-05T18:30:04.559Z,28.95
2018-11-05T18:32:32.044Z,28.83
2018-11-05T18:34:59.824Z,23.25
2018-11-05T18:37:28.072Z,29.50
2018-11-05T18:39:57.055Z,28.40
2018-11-05T18:42:24.770Z,25.65
2018-11-05T18:44:52.903Z,22.22
2018-11-05T18:47:21.508Z,34.27
2018-11-05T18:49:50.331Z,28.57
2018-11-05T18:52:18.347Z,27.62
2018-11-05T18:54:46.903Z,20.65
2018-11-05T18:57:14.456Z,19.30
2018-11-05T18:59:42.655Z,27.05
2018-11-05T19:02:16.281Z,23.40
2018-11-05T19:04:45.227Z,22.02
2018-11-05T19:07:13.875Z,23.07
2018-11-05T19:09:41.459Z,24.77
2018-11-05T19:12:09.667Z,21.97
2018-11-05T19:14:39.203Z,18.40
2018-11-05T19:17:06.843Z,26.13
2018-11-05T19:19:34.301Z,20.10
2018-11-05T19:22:01.673Z,26.55
2018-11-05T19:24:29.347Z,24.43
2018-11-05T19:26:56.571Z,23.02
2018-11-05T19:29:24.050Z,22.45
2018-11-05T19:31:51.688Z,29.57
2018-11-05T19:34:20.712Z,29.02
2018-11-05T19:36:49.962Z,20.52
2018-11-05T19:39:17.285Z,23.07
2018-11-05T19:41:47.363Z,20.75
2018-11-05T19:44:14.820Z,18.75
2018-11-05T19:46:42.287Z,36.63
2018-11-05T19:49:13.099Z,25.15
2018-11-05T19:51:41.485Z,35.38
2018-11-05T19:54:09.506Z,18.45
2018-11-05T19:56:37.943Z,21.85
2018-11-05T19:59:06.113Z,28.15
2018-11-05T20:01:35.817Z,29.18
2018-11-05T20:04:03.666Z,22.02
2018-11-05T20:06:32.627Z,15.75
2018-11-05T20:09:02.806Z,18.75
2018-11-05T20:11:30.623Z,19.23
2018-11-05T20:13:57.946Z,20.10
2018-11-05T20:16:28.686Z,22.45
2018-11-05T20:18:56.121Z,23.40
2018-11-05T20:21:25.299Z,23.30
2018-11-05T20:23:52.895Z,28.47
2018-11-05T20:26:20.797Z,18.23
2018-11-05T20:28:48.304Z,24.02
2018-11-05T20:31:17.430Z,18.30
2018-11-05T20:33:45.642Z,24.47
2018-11-05T20:36:14.376Z,19.35
2018-11-05T20:38:41.770Z,19.20
2018-11-05T20:41:09.187Z,27.30
2018-11-05T20:43:37.563Z,21.55
2018-11-05T20:46:05.181Z,17.85
2018-11-05T20:48:32.863Z,21.55
2018-11-05T20:51:00.215Z,20.80
2018-11-05T20:53:27.645Z,23.52
2018-11-05T20:55:55.325Z,18.48
2018-11-05T20:58:24.658Z,15.08
2018-11-05T21:00:52.070Z,16.75
2018-11-05T21:03:20.453Z,21.42
2018-11-05T21:05:48.063Z,20.05
2018-11-05T21:08:16.034Z,20.57
2018-11-05T21:10:43.551Z,43.35
2018-11-05T21:13:11.217Z,24.67
2018-11-05T21:15:38.716Z,16.23
2018-11-05T21:18:08.825Z,18.30
2018-11-05T21:23:28.956Z,25.77
2018-11-05T21:25:57.604Z,24.25
2018-11-05T21:28:25.102Z,31.00
2018-11-05T21:30:54.232Z,27.37
2018-11-05T21:33:22.503Z,24.05
2018-11-05T21:35:49.840Z,27.85
2018-11-05T21:38:18.037Z,26.12
2018-11-05T21:40:47.623Z,30.82
2018-11-05T21:43:16.005Z,34.98
2018-11-05T21:45:45.600Z,30.80
2018-11-05T21:48:13.457Z,26.17
2018-11-05T21:50:40.714Z,23.55
2018-11-05T21:53:11.195Z,29.35
2018-11-05T21:55:39.368Z,19.52
2018-11-05T21:58:06.644Z,19.57
2018-11-05T22:00:34.334Z,24.30
2018-11-05T22:03:03.994Z,20.85
2018-11-05T22:05:31.630Z,24.75
2018-11-05T22:07:59.024Z,28.80
2018-11-05T22:10:26.326Z,37.95
2018-11-05T22:12:53.714Z,25.95
2018-11-05T22:15:21.218Z,23.22
2018-11-05T22:17:50.255Z,23.47
2018-11-05T22:20:18.545Z,16.50
2018-11-05T22:22:46.124Z,15.48
2018-11-05T22:25:15.805Z,16.20
2018-11-05T22:27:43.542Z,15.93
2018-11-05T22:30:11.422Z,19.40
2018-11-05T22:32:39.177Z,17.50
2018-11-05T22:35:08.192Z,18.05
2018-11-05T22:37:36.663Z,12.78
2018-11-05T22:40:07.083Z,13.68
2018-11-05T22:42:35.256Z,15.80
2018-11-05T22:45:02.679Z,18.37
2018-11-05T22:47:32.307Z,15.60
2018-11-05T22:50:01.849Z,17.70
2018-11-05T22:52:29.560Z,16.25
2018-11-05T22:55:08.430Z,25.85
2018-11-05T22:57:39.816Z,18.45
2018-11-05T23:00:26.660Z,15.63
2018-11-05T23:03:01.671Z,21.15
2018-11-05T23:05:31.369Z,26.12
2018-11-05T23:07:58.838Z,15.58
2018-11-05T23:10:27.666Z,17.37
2018-11-05T23:12:55.043Z,13.20
2018-11-05T23:15:22.393Z,18.85
2018-11-05T23:17:50.110Z,19.15
2018-11-05T23:20:17.456Z,14.75
2018-11-05T23:22:44.927Z,13.53
2018-11-05T23:25:13.062Z,14.83
2018-11-05T23:27:40.653Z,16.17
2018-11-05T23:30:09.436Z,13.20
2018-11-05T23:32:37.629Z,17.82
2018-11-05T23:35:06.033Z,16.97
2018-11-05T23:37:33.310Z,20.70
2018-11-05T23:40:00.774Z,12.55
2018-11-05T23:42:28.198Z,14.10
2018-11-05T23:44:55.576Z,11.45
2018-11-05T23:47:27.969Z,12.80
2018-11-05T23:49:55.565Z,14.15
2018-11-05T23:52:25.441Z,8.58
2018-11-05T23:54:52.963Z,10.75
2018-11-05T23:57:22.581Z,11.65
2018-11-05T23:59:50.599Z,8.10
